createdAt,value
2022-12-31T00:02:22.707Z,16.47
2022-12-31T00:04:49.536Z,16.48
2022-12-31T00:07:16.307Z,16.49
2022-12-31T00:09:43.159Z,16.51
2022-12-31T00:12:10.009Z,16.53
2022-12-31T00:14:36.930Z,16.55
2022-12-31T00:17:03.729Z,16.57
2022-12-31T00:19:30.611Z,16.61
2022-12-31T00:21:57.372Z,16.63
2022-12-31T00:24:24.396Z,16.63
2022-12-31T00:26:51.137Z,16.66
2022-12-31T00:29:17.891Z,16.69
2022-12-31T00:31:44.651Z,16.72
2022-12-31T00:34:11.405Z,16.75
2022-12-31T00:36:39.483Z,16.77
2022-12-31T00:39:08.235Z,16.78
2022-12-31T00:41:35.653Z,16.83
2022-12-31T00:44:02.830Z,16.85
2022-12-31T00:46:29.828Z,16.88
2022-12-31T00:48:56.679Z,16.88
2022-12-31T00:51:27.218Z,16.90
2022-12-31T00:53:55.369Z,16.95
2022-12-31T00:56:26.462Z,16.96
2022-12-31T00:58:53.439Z,17.02
2022-12-31T01:01:24.995Z,17.02
2022-12-31T01:03:56.161Z,17.03
2022-12-31T01:06:22.977Z,17.06
2022-12-31T01:08:51.027Z,17.05
2022-12-31T01:11:18.964Z,17.04
2022-12-31T01:13:48.493Z,17.02
2022-12-31T01:16:16.247Z,17.00
2022-12-31T01:18:43.248Z,16.98
2022-12-31T01:21:12.591Z,16.96
2022-12-31T01:23:40.084Z,16.96
2022-12-31T01:26:10.400Z,16.95
2022-12-31T01:28:37.181Z,16.96
2022-12-31T01:31:07.313Z,16.95
2022-12-31T01:33:35.166Z,16.96
2022-12-31T01:36:08.777Z,16.94
2022-12-31T01:38:35.803Z,16.98
2022-12-31T01:41:03.505Z,17.00
2022-12-31T01:43:55.282Z,16.92
2022-12-31T01:46:52.514Z,16.93
2022-12-31T01:49:44.262Z,16.93
2022-12-31T01:52:42.661Z,16.95
2022-12-31T01:55:19.551Z,16.99
2022-12-31T01:57:50.195Z,17.03
2022-12-31T02:00:17.749Z,17.07
2022-12-31T02:02:44.998Z,17.10
2022-12-31T02:05:22.942Z,17.08
2022-12-31T02:07:50.053Z,17.14
2022-12-31T02:10:16.932Z,17.18
2022-12-31T02:12:43.920Z,17.20
2022-12-31T02:15:11.338Z,17.22
2022-12-31T02:17:59.025Z,17.19
2022-12-31T02:21:05.004Z,17.20
2022-12-31T02:24:21.549Z,17.22
2022-12-31T02:27:13.494Z,17.25
2022-12-31T02:30:13.451Z,17.25
2022-12-31T02:32:50.956Z,17.24
2022-12-31T02:35:45.223Z,17.29
2022-12-31T02:38:20.016Z,17.34
2022-12-31T02:40:47.732Z,17.39
2022-12-31T02:43:14.797Z,17.39
2022-12-31T02:45:48.289Z,17.38
2022-12-31T02:48:37.584Z,17.39
2022-12-31T02:51:28.130Z,17.37
2022-12-31T02:54:13.691Z,17.37
2022-12-31T02:57:41.113Z,17.35
2022-12-31T03:00:32.476Z,17.38
2022-12-31T03:03:01.116Z,17.38
2022-12-31T03:05:31.082Z,17.37
2022-12-31T03:07:57.868Z,17.29
2022-12-31T03:10:24.632Z,17.38
2022-12-31T03:12:51.763Z,17.37
2022-12-31T03:15:29.088Z,17.33
2022-12-31T03:18:12.620Z,17.32
2022-12-31T03:21:08.013Z,17.32
2022-12-31T03:23:50.023Z,17.31
2022-12-31T03:26:16.806Z,17.35
2022-12-31T03:28:47.601Z,17.34
2022-12-31T03:31:16.187Z,17.35
2022-12-31T03:33:43.085Z,17.36
2022-12-31T03:36:14.023Z,17.35
2022-12-31T03:38:41.433Z,17.39
2022-12-31T03:41:10.939Z,17.39
2022-12-31T03:43:37.890Z,17.42
2022-12-31T03:46:04.820Z,17.44
2022-12-31T03:48:31.629Z,17.45
2022-12-31T03:50:58.400Z,17.47
2022-12-31T03:53:25.189Z,17.49
2022-12-31T03:55:55.346Z,17.48
2022-12-31T03:58:25.297Z,17.53
2022-12-31T04:00:52.036Z,17.46
2022-12-31T04:03:18.921Z,17.55
2022-12-31T04:05:52.425Z,17.55
2022-12-31T04:08:19.212Z,17.59
2022-12-31T04:10:46.041Z,17.61
2022-12-31T04:13:12.804Z,17.62
2022-12-31T04:15:39.554Z,17.62
2022-12-31T04:18:06.374Z,17.63
2022-12-31T04:20:33.215Z,17.64
2022-12-31T04:23:00.015Z,17.65
2022-12-31T04:25:26.864Z,17.66
2022-12-31T04:27:53.616Z,17.67
2022-12-31T04:30:20.364Z,17.69
2022-12-31T04:32:47.152Z,17.70
2022-12-31T04:35:14.011Z,17.70
2022-12-31T04:37:40.778Z,17.70
2022-12-31T04:40:09.121Z,17.69
2022-12-31T04:42:36.307Z,17.69
2022-12-31T04:45:04.540Z,17.69
2022-12-31T04:47:31.386Z,17.69
2022-12-31T04:49:58.299Z,17.69
2022-12-31T04:52:25.061Z,17.67
2022-12-31T04:54:51.841Z,17.68
2022-12-31T04:57:18.643Z,17.68
2022-12-31T04:59:45.447Z,17.70
2022-12-31T05:02:12.409Z,17.70
2022-12-31T05:04:39.284Z,17.71
2022-12-31T05:07:06.171Z,17.73
2022-12-31T05:09:32.987Z,17.75
2022-12-31T05:12:00.011Z,17.77
2022-12-31T05:14:26.815Z,17.79
2022-12-31T05:16:53.806Z,17.80
2022-12-31T05:19:20.759Z,17.81
2022-12-31T05:22:07.566Z,17.83
2022-12-31T05:24:34.359Z,17.83
2022-12-31T05:27:01.162Z,17.84
2022-12-31T05:29:27.953Z,17.88
2022-12-31T05:31:54.730Z,17.88
2022-12-31T05:34:21.510Z,17.90
2022-12-31T05:36:48.283Z,17.92
2022-12-31T05:39:15.091Z,17.92
2022-12-31T05:41:41.881Z,17.94
2022-12-31T05:44:10.417Z,17.94
2022-12-31T05:46:37.191Z,17.96
2022-12-31T05:49:03.952Z,17.97
2022-12-31T05:51:30.719Z,17.98
2022-12-31T05:53:57.497Z,17.98
2022-12-31T05:56:24.273Z,17.98
2022-12-31T05:58:51.173Z,17.99
2022-12-31T06:01:17.987Z,18.00
2022-12-31T06:03:45.407Z,18.01
2022-12-31T06:06:12.291Z,17.99
2022-12-31T06:08:39.089Z,17.99
2022-12-31T06:11:06.004Z,17.99
2022-12-31T06:13:32.780Z,17.99
2022-12-31T06:16:08.915Z,17.96
2022-12-31T06:18:35.733Z,17.99
2022-12-31T06:21:04.050Z,17.97
2022-12-31T06:23:30.856Z,17.99
2022-12-31T06:26:01.780Z,17.97
2022-12-31T06:28:28.563Z,18.00
2022-12-31T06:31:01.262Z,17.99
2022-12-31T06:33:28.353Z,18.01
2022-12-31T06:36:01.182Z,17.97
2022-12-31T06:38:30.849Z,17.99
2022-12-31T06:40:57.613Z,18.00
2022-12-31T06:43:24.541Z,17.99
2022-12-31T06:45:51.312Z,17.98
2022-12-31T06:48:18.635Z,17.98
2022-12-31T06:50:46.226Z,17.98
2022-12-31T06:53:13.018Z,17.97
2022-12-31T06:55:40.185Z,17.98
2022-12-31T06:58:12.109Z,17.94
2022-12-31T07:00:48.659Z,17.89
2022-12-31T07:03:38.598Z,17.86
2022-12-31T07:06:10.265Z,17.76
2022-12-31T07:08:45.322Z,17.82
2022-12-31T07:11:27.160Z,17.77
2022-12-31T07:14:06.970Z,17.77
2022-12-31T07:16:55.286Z,17.73
2022-12-31T07:19:57.683Z,17.71
2022-12-31T07:22:25.211Z,17.74
2022-12-31T07:24:52.300Z,17.75
2022-12-31T07:27:44.482Z,17.69
2022-12-31T07:30:14.248Z,17.76
2022-12-31T07:32:43.893Z,17.78
2022-12-31T07:35:35.931Z,17.75
2022-12-31T07:38:24.760Z,17.75
2022-12-31T07:41:09.271Z,17.78
2022-12-31T07:44:11.785Z,17.77
2022-12-31T07:47:00.162Z,17.77
2022-12-31T07:49:29.823Z,17.82
2022-12-31T07:51:56.977Z,17.84
2022-12-31T07:54:23.886Z,17.86
2022-12-31T07:56:51.585Z,17.88
2022-12-31T08:00:01.192Z,17.85
2022-12-31T08:02:40.079Z,17.89
2022-12-31T08:05:14.526Z,17.93
2022-12-31T08:08:18.710Z,17.90
2022-12-31T08:11:14.392Z,17.93
2022-12-31T08:13:42.525Z,18.00
2022-12-31T08:16:13.827Z,18.02
2022-12-31T08:18:41.134Z,18.08
2022-12-31T08:21:49.110Z,18.06
2022-12-31T08:24:39.606Z,18.09
2022-12-31T08:27:24.336Z,18.09
2022-12-31T08:30:15.951Z,18.11
2022-12-31T08:33:03.370Z,18.16
2022-12-31T08:36:06.617Z,18.16
2022-12-31T08:39:03.794Z,18.16
2022-12-31T08:41:44.403Z,18.21
2022-12-31T08:44:35.661Z,18.23
2022-12-31T08:47:25.573Z,18.27
2022-12-31T08:49:53.540Z,18.37
2022-12-31T08:52:25.372Z,18.38
2022-12-31T08:54:53.008Z,18.47
2022-12-31T08:57:35.195Z,18.48
2022-12-31T09:00:11.506Z,18.54
2022-12-31T09:02:51.787Z,18.59
2022-12-31T09:05:56.972Z,18.63
2022-12-31T09:09:06.135Z,18.69
2022-12-31T09:12:05.632Z,18.76
2022-12-31T09:14:43.575Z,18.81
2022-12-31T09:17:49.629Z,18.84
2022-12-31T09:20:44.362Z,18.93
2022-12-31T09:23:13.061Z,19.03
2022-12-31T09:25:53.409Z,19.05
2022-12-31T09:28:43.241Z,19.12
2022-12-31T09:31:53.066Z,19.18
2022-12-31T09:34:28.870Z,19.21
2022-12-31T09:37:07.284Z,19.34
2022-12-31T09:39:44.136Z,19.38
2022-12-31T09:42:44.122Z,19.42
2022-12-31T09:45:26.060Z,19.42
2022-12-31T09:48:59.260Z,19.47
2022-12-31T09:51:55.685Z,19.55
2022-12-31T09:54:22.378Z,19.67
2022-12-31T09:57:32.277Z,19.67
2022-12-31T10:00:30.199Z,19.69
2022-12-31T10:02:59.728Z,19.83
2022-12-31T10:05:51.426Z,19.84
2022-12-31T10:08:51.960Z,19.92
2022-12-31T10:11:45.211Z,19.98
2022-12-31T10:15:11.462Z,20.03
2022-12-31T10:18:03.842Z,20.10
2022-12-31T10:21:11.374Z,20.17
2022-12-31T10:23:54.581Z,20.27
2022-12-31T10:26:53.248Z,20.36
2022-12-31T10:29:42.870Z,20.47
2022-12-31T10:32:41.844Z,20.58
2022-12-31T10:35:36.365Z,20.72
2022-12-31T10:38:43.674Z,20.83
2022-12-31T10:41:18.910Z,20.99
2022-12-31T10:44:16.560Z,21.09
2022-12-31T10:47:20.100Z,21.25
2022-12-31T10:50:34.535Z,21.41
2022-12-31T10:53:41.611Z,21.59
2022-12-31T10:56:48.189Z,21.75
2022-12-31T10:59:37.364Z,21.97
2022-12-31T11:02:32.122Z,22.14
2022-12-31T11:05:44.989Z,22.34
2022-12-31T11:08:33.172Z,22.53
2022-12-31T11:12:09.192Z,22.67
2022-12-31T11:15:13.362Z,22.82
2022-12-31T11:18:21.027Z,22.95
2022-12-31T11:21:36.299Z,23.11
2022-12-31T11:25:00.299Z,23.28
2022-12-31T11:28:01.128Z,23.46
2022-12-31T11:31:12.938Z,23.63
2022-12-31T11:34:19.034Z,23.83
2022-12-31T11:37:43.907Z,24.03
2022-12-31T11:41:06.567Z,24.28
2022-12-31T11:43:46.642Z,24.55
2022-12-31T11:46:48.860Z,24.74
2022-12-31T11:49:33.757Z,24.93
2022-12-31T11:52:21.157Z,25.12
2022-12-31T11:55:14.225Z,25.29
2022-12-31T11:57:46.766Z,25.50
2022-12-31T12:00:25.469Z,25.56
2022-12-31T12:02:58.097Z,25.63
2022-12-31T12:05:26.203Z,25.73
2022-12-31T12:07:54.292Z,25.77
2022-12-31T12:10:36.472Z,25.77
2022-12-31T12:13:23.737Z,25.62
2022-12-31T12:15:55.429Z,25.37
2022-12-31T12:19:11.051Z,25.02
2022-12-31T12:21:49.132Z,24.69
2022-12-31T12:24:29.051Z,24.40
2022-12-31T12:26:57.370Z,24.20
2022-12-31T12:29:29.986Z,23.94
2022-12-31T12:32:05.306Z,23.69
2022-12-31T12:34:45.870Z,23.48
2022-12-31T12:37:26.320Z,23.27
2022-12-31T12:40:18.354Z,23.12
2022-12-31T12:42:51.189Z,23.00
2022-12-31T12:45:20.929Z,22.91
2022-12-31T12:47:56.397Z,22.77
2022-12-31T12:50:26.808Z,22.67
2022-12-31T12:53:25.696Z,22.57
2022-12-31T12:56:33.744Z,22.44
2022-12-31T12:59:30.301Z,22.41
2022-12-31T13:02:17.129Z,22.38
2022-12-31T13:04:49.795Z,22.42
2022-12-31T13:07:48.438Z,22.32
2022-12-31T13:10:29.323Z,22.32
2022-12-31T13:13:24.281Z,22.27
2022-12-31T13:16:37.724Z,22.24
2022-12-31T13:19:42.014Z,22.20
2022-12-31T13:22:20.525Z,22.21
2022-12-31T13:25:22.501Z,22.15
2022-12-31T13:27:52.530Z,22.21
2022-12-31T13:30:35.439Z,22.19
2022-12-31T13:33:24.613Z,22.22
2022-12-31T13:36:00.175Z,22.22
2022-12-31T13:38:39.270Z,22.24
2022-12-31T13:41:42.282Z,22.20
2022-12-31T13:44:16.722Z,22.23
2022-12-31T13:46:58.617Z,22.22
2022-12-31T13:49:51.511Z,22.22
2022-12-31T13:52:32.704Z,22.15
2022-12-31T13:55:41.851Z,22.07
2022-12-31T13:58:40.909Z,22.03
2022-12-31T14:01:15.306Z,22.03
2022-12-31T14:04:33.574Z,21.99
2022-12-31T14:07:18.001Z,21.98
2022-12-31T14:09:46.499Z,22.03
2022-12-31T14:12:30.867Z,21.96
2022-12-31T14:15:28.907Z,21.94
2022-12-31T14:18:11.983Z,21.94
2022-12-31T14:20:58.810Z,21.90
2022-12-31T14:23:53.204Z,21.86
2022-12-31T14:26:28.025Z,21.86
2022-12-31T14:29:10.458Z,21.82
2022-12-31T14:31:49.395Z,21.78
2022-12-31T14:35:01.291Z,21.69
2022-12-31T14:37:47.070Z,21.68
2022-12-31T14:41:01.502Z,21.55
2022-12-31T14:43:52.426Z,21.53
2022-12-31T14:46:59.910Z,21.47
2022-12-31T14:50:05.300Z,21.41
2022-12-31T14:52:35.604Z,21.37
2022-12-31T14:55:28.349Z,21.27
2022-12-31T15:00:55.667Z,21.20
2022-12-31T15:03:32.570Z,21.14
2022-12-31T15:06:22.516Z,21.05
2022-12-31T15:09:17.012Z,20.99
2022-12-31T15:12:16.517Z,20.92
2022-12-31T15:15:23.037Z,20.81
2022-12-31T15:17:59.321Z,20.81
2022-12-31T15:20:51.980Z,20.71
2022-12-31T15:23:37.427Z,20.66
2022-12-31T15:26:05.662Z,20.65
2022-12-31T15:28:38.772Z,20.58
2022-12-31T15:31:17.527Z,20.52
2022-12-31T15:34:05.025Z,20.43
2022-12-31T15:36:38.861Z,20.40
2022-12-31T15:39:11.604Z,20.34
2022-12-31T15:42:10.200Z,20.29
2022-12-31T15:44:50.037Z,20.23
2022-12-31T15:47:29.234Z,20.13
2022-12-31T15:49:59.868Z,20.10
2022-12-31T15:52:47.884Z,20.01
2022-12-31T15:55:42.865Z,19.95
2022-12-31T15:58:18.656Z,19.94
2022-12-31T16:01:13.712Z,19.85
2022-12-31T16:04:17.393Z,19.78
2022-12-31T16:06:50.497Z,19.80
2022-12-31T16:09:27.741Z,19.70
2022-12-31T16:11:56.588Z,19.67
2022-12-31T16:14:29.097Z,19.61
2022-12-31T16:16:59.671Z,19.55
2022-12-31T16:19:48.732Z,19.44
2022-12-31T16:22:29.547Z,19.38
2022-12-31T16:25:29.795Z,19.37
2022-12-31T16:27:49.645Z,19.31
2022-12-31T16:30:29.423Z,19.23
2022-12-31T16:33:02.642Z,19.20
2022-12-31T16:35:36.483Z,19.17
2022-12-31T16:38:34.831Z,19.07
2022-12-31T16:41:01.461Z,19.11
2022-12-31T16:43:38.095Z,19.02
2022-12-31T16:46:31.323Z,18.96
2022-12-31T16:49:20.294Z,18.92
2022-12-31T16:51:47.582Z,18.95
2022-12-31T16:54:24.525Z,18.90
2022-12-31T16:56:52.374Z,18.90
2022-12-31T16:59:26.431Z,18.86
2022-12-31T17:01:59.617Z,18.85
2022-12-31T17:04:26.859Z,18.85
2022-12-31T17:06:53.632Z,18.85
2022-12-31T17:09:22.889Z,18.82
2022-12-31T17:11:56.694Z,18.79
2022-12-31T17:14:27.173Z,18.78
2022-12-31T17:17:03.210Z,18.80
2022-12-31T17:19:47.707Z,18.72
2022-12-31T17:22:36.486Z,18.71
2022-12-31T17:25:28.569Z,18.70
2022-12-31T17:28:07.523Z,18.76
2022-12-31T17:30:34.916Z,18.78
2022-12-31T17:33:21.867Z,18.72
2022-12-31T17:35:55.185Z,18.76
2022-12-31T17:38:21.904Z,18.80
2022-12-31T17:40:55.124Z,18.78
2022-12-31T17:43:23.888Z,18.81
2022-12-31T17:45:52.742Z,18.81
2022-12-31T17:48:20.489Z,18.81
2022-12-31T17:50:52.922Z,18.80
2022-12-31T17:53:20.244Z,18.81
2022-12-31T17:55:54.838Z,18.78
2022-12-31T17:58:30.036Z,18.76
2022-12-31T18:00:58.232Z,18.78
2022-12-31T18:03:25.237Z,18.76
2022-12-31T18:05:52.580Z,18.75
2022-12-31T18:08:19.382Z,18.76
2022-12-31T18:10:46.386Z,18.75
2022-12-31T18:13:19.505Z,18.70
2022-12-31T18:15:46.644Z,18.72
2022-12-31T18:18:28.810Z,18.66
2022-12-31T18:21:01.371Z,18.66
2022-12-31T18:23:51.340Z,18.60
2022-12-31T18:26:21.283Z,18.54
2022-12-31T18:28:49.480Z,18.62
2022-12-31T18:31:25.052Z,18.59
2022-12-31T18:33:54.598Z,18.60
2022-12-31T18:36:23.284Z,18.59
2022-12-31T18:38:50.256Z,18.59
2022-12-31T18:41:19.716Z,18.56
2022-12-31T18:43:47.093Z,18.57
2022-12-31T18:46:17.024Z,18.54
2022-12-31T18:48:44.245Z,18.43
2022-12-31T18:51:23.105Z,18.47
2022-12-31T18:53:53.340Z,18.48
2022-12-31T18:56:21.920Z,18.43
2022-12-31T18:58:48.817Z,18.39
2022-12-31T19:01:34.876Z,18.29
2022-12-31T19:04:06.682Z,18.29
2022-12-31T19:06:34.138Z,18.26
2022-12-31T19:09:01.287Z,18.22
2022-12-31T19:11:28.303Z,18.19
2022-12-31T19:13:55.185Z,18.16
2022-12-31T19:16:22.027Z,18.10
2022-12-31T19:18:49.451Z,18.05
2022-12-31T19:21:20.981Z,17.96
2022-12-31T19:23:48.281Z,17.95
2022-12-31T19:26:18.168Z,17.87
2022-12-31T19:28:46.345Z,17.83
2022-12-31T19:31:14.282Z,17.79
2022-12-31T19:33:41.411Z,17.76
2022-12-31T19:36:15.651Z,17.68
2022-12-31T19:38:42.970Z,17.67
2022-12-31T19:41:18.967Z,17.57
2022-12-31T19:43:47.416Z,17.53
2022-12-31T19:46:17.287Z,17.47
2022-12-31T19:48:45.640Z,17.41
2022-12-31T19:51:18.382Z,17.35
2022-12-31T19:53:47.168Z,17.30
2022-12-31T19:56:18.985Z,17.23
2022-12-31T19:58:46.289Z,17.19
2022-12-31T20:01:21.043Z,17.09
2022-12-31T20:03:48.350Z,17.05
2022-12-31T20:06:16.336Z,16.99
2022-12-31T20:08:43.303Z,16.95
2022-12-31T20:11:17.881Z,16.86
2022-12-31T20:13:46.293Z,16.84
2022-12-31T20:16:18.770Z,16.79
2022-12-31T20:18:47.464Z,16.78
2022-12-31T20:21:18.972Z,16.75
2022-12-31T20:23:46.773Z,16.75
2022-12-31T20:26:13.714Z,16.73
2022-12-31T20:28:40.566Z,16.72
2022-12-31T20:31:14.038Z,16.68
2022-12-31T20:33:41.342Z,16.71
2022-12-31T20:36:11.857Z,16.67
2022-12-31T20:38:38.868Z,16.66
2022-12-31T20:41:10.240Z,16.61
2022-12-31T20:43:37.641Z,16.60
2022-12-31T20:46:15.424Z,16.56
2022-12-31T20:48:44.760Z,16.56
2022-12-31T20:51:13.270Z,16.56
2022-12-31T20:53:40.262Z,16.54
2022-12-31T20:56:08.599Z,16.54
2022-12-31T20:58:36.089Z,16.55
2022-12-31T21:01:07.120Z,16.53
2022-12-31T21:04:04.137Z,16.52
2022-12-31T21:06:23.866Z,16.50
2022-12-31T21:08:51.175Z,16.46
2022-12-31T21:11:36.517Z,16.44
2022-12-31T21:14:03.328Z,16.38
2022-12-31T21:16:30.217Z,16.34
2022-12-31T21:18:58.068Z,16.28
2022-12-31T21:21:25.057Z,16.22
2022-12-31T21:23:51.819Z,16.16
2022-12-31T21:26:18.820Z,16.10
2022-12-31T21:28:45.996Z,16.04
2022-12-31T21:31:14.389Z,15.99
2022-12-31T21:33:45.542Z,15.93
2022-12-31T21:36:12.657Z,15.88
2022-12-31T21:38:39.722Z,15.84
2022-12-31T21:41:08.725Z,15.79
2022-12-31T21:43:35.715Z,15.77
2022-12-31T21:46:07.235Z,15.73
2022-12-31T21:48:34.349Z,15.73
2022-12-31T21:51:14.770Z,15.67
2022-12-31T21:53:41.629Z,15.70
2022-12-31T21:56:10.973Z,15.66
2022-12-31T21:58:43.478Z,15.63
2022-12-31T22:01:39.377Z,15.59
2022-12-31T22:04:10.001Z,15.61
2022-12-31T22:06:43.973Z,15.59
2022-12-31T22:09:10.727Z,15.58
2022-12-31T22:11:37.808Z,15.57
2022-12-31T22:14:04.595Z,15.56
2022-12-31T22:16:31.449Z,15.58
2022-12-31T22:18:58.280Z,15.57
2022-12-31T22:21:26.457Z,15.58
2022-12-31T22:23:56.212Z,15.58
2022-12-31T22:26:27.723Z,15.59
2022-12-31T22:28:58.989Z,15.62
2022-12-31T22:31:32.276Z,15.62
2022-12-31T22:33:59.592Z,15.65
2022-12-31T22:36:26.415Z,15.66
2022-12-31T22:38:57.918Z,15.66
2022-12-31T22:41:26.735Z,15.68
2022-12-31T22:44:02.663Z,15.68
2022-12-31T22:46:30.813Z,15.69
2022-12-31T22:48:59.665Z,15.66
2022-12-31T22:51:56.758Z,15.68
2022-12-31T22:54:14.786Z,15.69
2022-12-31T22:56:41.684Z,15.70
2022-12-31T22:59:09.154Z,15.70
2022-12-31T23:01:36.897Z,15.71
2022-12-31T23:04:04.206Z,15.69
2022-12-31T23:06:31.221Z,15.70
2022-12-31T23:09:16.982Z,15.69
2022-12-31T23:11:43.767Z,15.66
2022-12-31T23:14:35.925Z,15.61
2022-12-31T23:17:29.745Z,15.62
2022-12-31T23:20:18.308Z,15.59
2022-12-31T23:23:04.888Z,15.58
2022-12-31T23:25:33.596Z,15.55
2022-12-31T23:28:00.400Z,15.55
2022-12-31T23:30:27.653Z,15.55
2022-12-31T23:32:54.446Z,15.54
2022-12-31T23:35:21.589Z,15.54
2022-12-31T23:37:48.375Z,15.54
2022-12-31T23:40:20.909Z,15.53
2022-12-31T23:42:49.783Z,15.52
2022-12-31T23:45:16.613Z,15.51
2022-12-31T23:47:43.435Z,15.50
2022-12-31T23:50:10.345Z,15.49
2022-12-31T23:52:37.090Z,15.50
2022-12-31T23:55:04.184Z,15.49
2022-12-31T23:57:31.214Z,15.49
2022-12-31T23:59:57.989Z,15.48
